createdAt,value
2017-12-09T00:01:16.558Z,83.20
2017-12-09T00:03:44.154Z,83.30
2017-12-09T00:06:11.691Z,83.50
2017-12-09T00:08:39.230Z,83.70
2017-12-09T00:11:06.783Z,84.70
2017-12-09T00:13:34.320Z,84.40
2017-12-09T00:16:02.611Z,85.00
2017-12-09T00:18:30.403Z,85.00
2017-12-09T00:20:57.955Z,85.20
2017-12-09T00:23:25.485Z,85.40
2017-12-09T00:25:53.800Z,86.30
2017-12-09T00:28:21.370Z,86.30
2017-12-09T00:30:49.383Z,86.70
2017-12-09T00:33:18.450Z,87.50
2017-12-09T00:35:46.127Z,86.80
2017-12-09T00:38:15.499Z,86.70
2017-12-09T00:40:43.089Z,86.70
2017-12-09T00:43:10.615Z,86.90
2017-12-09T00:45:38.249Z,86.80
2017-12-09T00:48:05.920Z,86.70
2017-12-09T00:50:33.478Z,86.80
2017-12-09T00:53:01.016Z,86.90
2017-12-09T00:55:28.625Z,87.40
2017-12-09T00:57:57.659Z,87.20
2017-12-09T01:00:25.195Z,87.20
2017-12-09T01:02:52.786Z,87.40
2017-12-09T01:05:20.312Z,87.40
2017-12-09T01:07:47.843Z,87.20
2017-12-09T01:10:17.331Z,87.40
2017-12-09T01:12:44.864Z,86.70
2017-12-09T01:18:19.815Z,86.50
2017-12-09T01:20:47.408Z,86.40
2017-12-09T01:23:16.396Z,86.10
2017-12-09T01:25:43.934Z,86.00
2017-12-09T01:28:11.497Z,86.20
2017-12-09T01:30:39.027Z,85.80
2017-12-09T01:33:07.608Z,86.30
2017-12-09T01:35:35.165Z,86.30
2017-12-09T01:38:03.456Z,86.40
2017-12-09T01:40:30.986Z,86.40
2017-12-09T01:42:58.571Z,86.20
2017-12-09T01:45:26.120Z,86.30
2017-12-09T01:47:53.655Z,86.40
2017-12-09T01:50:21.211Z,86.20
2017-12-09T01:52:48.739Z,86.50
2017-12-09T01:55:16.449Z,86.40
2017-12-09T01:57:44.779Z,86.80
2017-12-09T02:00:12.307Z,86.80
2017-12-09T02:02:39.836Z,87.80
2017-12-09T02:05:07.418Z,87.50
2017-12-09T02:07:34.999Z,87.40
2017-12-09T02:10:02.532Z,87.50
2017-12-09T02:12:30.083Z,87.20
2017-12-09T02:14:58.375Z,86.60
2017-12-09T02:17:25.967Z,86.60
2017-12-09T02:19:53.531Z,85.90
2017-12-09T02:22:21.066Z,85.70
2017-12-09T02:24:48.619Z,85.40
2017-12-09T02:27:16.814Z,84.80
2017-12-09T02:29:44.575Z,85.10
2017-12-09T02:32:12.107Z,84.50
2017-12-09T02:34:40.190Z,83.90
2017-12-09T02:37:07.724Z,83.70
2017-12-09T02:39:36.020Z,83.70
2017-12-09T02:42:03.577Z,83.70
2017-12-09T02:44:31.115Z,83.00
2017-12-09T02:46:59.413Z,82.00
2017-12-09T02:49:27.816Z,81.90
2017-12-09T02:51:55.408Z,82.50
2017-12-09T02:54:22.976Z,82.40
2017-12-09T02:56:51.300Z,82.50
2017-12-09T02:59:18.875Z,82.50
2017-12-09T03:01:46.407Z,82.60
2017-12-09T03:04:16.483Z,82.80
2017-12-09T03:06:44.031Z,83.10
2017-12-09T03:09:11.564Z,81.70
2017-12-09T03:11:39.232Z,82.20
2017-12-09T03:14:06.762Z,82.20
2017-12-09T03:16:34.295Z,82.50
2017-12-09T03:19:02.003Z,82.20
2017-12-09T03:21:29.542Z,82.90
2017-12-09T03:23:57.125Z,82.80
2017-12-09T03:26:24.696Z,83.40
2017-12-09T03:28:52.228Z,82.90
2017-12-09T03:31:19.772Z,83.00
2017-12-09T03:33:47.352Z,81.10
2017-12-09T03:36:17.879Z,81.50
2017-12-09T03:38:45.407Z,81.50
2017-12-09T03:41:15.591Z,81.90
2017-12-09T03:43:43.884Z,79.10
2017-12-09T03:46:11.415Z,79.00
2017-12-09T03:48:38.968Z,77.10
2017-12-09T03:51:06.491Z,76.00
2017-12-09T03:53:34.016Z,76.20
2017-12-09T03:56:02.365Z,77.70
2017-12-09T03:58:29.893Z,77.40
2017-12-09T04:00:57.423Z,77.10
2017-12-09T04:03:25.006Z,78.40
2017-12-09T04:05:52.534Z,78.00
2017-12-09T04:08:20.851Z,78.20
2017-12-09T04:10:48.412Z,78.20
2017-12-09T04:13:16.401Z,78.70
2017-12-09T04:15:43.962Z,77.90
2017-12-09T04:18:11.544Z,79.10
2017-12-09T04:20:39.067Z,79.50
2017-12-09T04:23:06.603Z,79.10
2017-12-09T04:25:34.199Z,79.30
2017-12-09T04:28:01.725Z,78.90
2017-12-09T04:30:29.295Z,78.90
2017-12-09T04:32:56.847Z,79.30
2017-12-09T04:35:24.600Z,79.20
2017-12-09T04:37:52.444Z,79.60
2017-12-09T04:40:20.027Z,79.80
2017-12-09T04:42:47.594Z,79.50
2017-12-09T04:45:15.596Z,80.10
2017-12-09T04:47:43.210Z,79.30
2017-12-09T04:50:10.751Z,79.50
2017-12-09T04:52:38.279Z,79.50
2017-12-09T04:55:05.864Z,79.80
2017-12-09T04:57:33.391Z,80.10
2017-12-09T05:00:00.928Z,79.40
2017-12-09T05:02:28.508Z,78.60
2017-12-09T05:04:56.035Z,77.90
2017-12-09T05:07:23.569Z,78.20
2017-12-09T05:09:51.132Z,77.60
2017-12-09T05:12:18.665Z,77.40
2017-12-09T05:14:46.355Z,75.80
2017-12-09T05:17:16.299Z,76.60
2017-12-09T05:19:43.827Z,76.60
2017-12-09T05:22:11.359Z,76.80
2017-12-09T05:24:38.945Z,76.00
2017-12-09T05:27:06.485Z,76.90
2017-12-09T05:29:34.816Z,77.00
2017-12-09T05:32:02.371Z,77.00
2017-12-09T05:34:29.895Z,76.50
2017-12-09T05:36:57.427Z,75.90
2017-12-09T05:39:25.541Z,76.60
2017-12-09T05:41:53.222Z,76.20
2017-12-09T05:44:20.748Z,75.90
2017-12-09T05:46:48.344Z,76.10
2017-12-09T05:49:16.415Z,76.10
2017-12-09T05:51:43.935Z,75.80
2017-12-09T05:54:11.497Z,75.20
2017-12-09T05:56:39.036Z,75.60
2017-12-09T05:59:07.343Z,76.50
2017-12-09T06:01:35.032Z,76.50
2017-12-09T06:04:02.712Z,76.60
2017-12-09T06:06:31.761Z,76.20
2017-12-09T06:08:59.339Z,76.20
2017-12-09T06:11:27.036Z,76.20
2017-12-09T06:13:54.555Z,76.20
2017-12-09T06:16:22.473Z,76.40
2017-12-09T06:18:50.067Z,76.20
2017-12-09T06:21:17.607Z,76.00
2017-12-09T06:23:45.235Z,76.00
2017-12-09T06:26:14.590Z,76.30
2017-12-09T06:28:42.152Z,76.30
2017-12-09T06:31:09.740Z,75.70
2017-12-09T06:33:37.263Z,76.20
2017-12-09T06:36:05.238Z,75.60
2017-12-09T06:38:32.898Z,76.20
2017-12-09T06:41:00.759Z,76.20
2017-12-09T06:43:28.282Z,76.20
2017-12-09T06:45:56.615Z,76.20
2017-12-09T06:48:24.190Z,76.20
2017-12-09T06:50:51.932Z,76.90
2017-12-09T06:53:19.690Z,76.70
2017-12-09T06:55:47.275Z,77.10
2017-12-09T06:58:16.473Z,76.40
2017-12-09T07:00:44.033Z,76.20
2017-12-09T07:03:11.573Z,76.20
2017-12-09T07:05:39.101Z,75.70
2017-12-09T07:08:06.664Z,76.70
2017-12-09T07:10:34.243Z,76.70
2017-12-09T07:13:01.993Z,76.80
2017-12-09T07:15:30.193Z,76.70
2017-12-09T07:17:57.932Z,77.10
2017-12-09T07:20:26.187Z,76.90
2017-12-09T07:22:53.764Z,77.10
2017-12-09T07:25:21.367Z,76.50
2017-12-09T07:27:49.208Z,76.90
2017-12-09T07:30:16.755Z,77.60
2017-12-09T07:32:44.307Z,77.20
2017-12-09T07:35:12.707Z,76.30
2017-12-09T07:37:40.291Z,76.70
2017-12-09T07:40:07.879Z,76.80
2017-12-09T07:42:36.181Z,76.30
2017-12-09T07:45:03.743Z,75.90
2017-12-09T07:47:31.271Z,75.90
2017-12-09T07:49:58.812Z,76.50
2017-12-09T07:52:27.196Z,75.90
2017-12-09T07:54:54.852Z,76.00
2017-12-09T07:57:22.383Z,76.80
2017-12-09T07:59:49.968Z,76.40
2017-12-09T08:02:17.495Z,75.70
2017-12-09T08:04:45.252Z,76.40
2017-12-09T08:07:13.821Z,76.50
2017-12-09T08:09:41.613Z,76.10
2017-12-09T08:12:09.349Z,76.40
2017-12-09T08:14:37.161Z,76.40
2017-12-09T08:17:04.911Z,76.00
2017-12-09T08:19:32.451Z,75.20
2017-12-09T08:22:00.400Z,75.90
2017-12-09T08:24:28.057Z,76.40
2017-12-09T08:26:55.652Z,76.20
2017-12-09T08:29:23.203Z,75.50
2017-12-09T08:31:50.873Z,75.80
2017-12-09T08:34:18.708Z,75.60
2017-12-09T08:36:46.340Z,75.40
2017-12-09T08:39:16.519Z,75.80
2017-12-09T08:41:44.052Z,76.30
2017-12-09T08:44:12.033Z,76.00
2017-12-09T08:46:39.724Z,76.30
2017-12-09T08:49:07.340Z,76.30
2017-12-09T08:51:34.937Z,76.30
2017-12-09T08:54:02.476Z,75.00
2017-12-09T08:56:30.004Z,75.30
2017-12-09T08:58:57.639Z,74.40
2017-12-09T09:01:25.177Z,74.60
2017-12-09T09:03:52.713Z,73.80
2017-12-09T09:06:20.307Z,73.60
2017-12-09T09:08:48.608Z,73.80
2017-12-09T09:11:16.440Z,73.20
2017-12-09T09:13:44.054Z,72.60
2017-12-09T09:16:11.580Z,72.10
2017-12-09T09:18:39.876Z,71.30
2017-12-09T09:21:07.685Z,71.30
2017-12-09T09:23:35.211Z,73.20
2017-12-09T09:26:02.740Z,73.00
2017-12-09T09:28:30.364Z,72.40
2017-12-09T09:30:57.906Z,72.10
2017-12-09T09:33:25.445Z,71.10
2017-12-09T09:35:53.001Z,71.30
2017-12-09T09:38:20.540Z,71.50
2017-12-09T09:40:48.097Z,70.50
2017-12-09T09:43:17.232Z,71.10
2017-12-09T09:45:45.593Z,71.10
2017-12-09T09:48:14.709Z,72.30
2017-12-09T09:57:42.319Z,70.80
2017-12-09T10:00:09.861Z,71.10
2017-12-09T10:02:37.399Z,72.20
2017-12-09T10:05:04.973Z,72.20
2017-12-09T10:07:32.499Z,71.30
2017-12-09T10:10:00.803Z,69.50
2017-12-09T10:12:28.664Z,69.50
2017-12-09T10:17:54.269Z,68.70
2017-12-09T10:20:22.580Z,68.40
2017-12-09T10:22:50.109Z,68.40
2017-12-09T10:25:17.679Z,68.30
2017-12-09T10:27:45.233Z,68.40
2017-12-09T10:30:13.683Z,68.30
2017-12-09T10:32:42.028Z,67.00
2017-12-09T10:35:09.551Z,67.00
2017-12-09T10:37:37.095Z,65.30
2017-12-09T10:40:04.699Z,65.40
2017-12-09T10:42:32.246Z,66.00
2017-12-09T10:44:59.780Z,67.10
2017-12-09T10:47:28.392Z,66.40
2017-12-09T10:49:55.927Z,66.30
2017-12-09T10:52:23.467Z,64.20
2017-12-09T10:54:51.800Z,64.20
2017-12-09T10:57:19.323Z,64.10
2017-12-09T10:59:46.851Z,63.80
2017-12-09T11:02:14.662Z,64.40
2017-12-09T11:13:17.647Z,62.90
2017-12-09T11:15:46.049Z,60.10
2017-12-09T11:18:14.607Z,60.40
2017-12-09T11:20:43.009Z,61.20
2017-12-09T11:23:11.317Z,62.30
2017-12-09T11:25:39.786Z,62.40
2017-12-09T11:28:07.340Z,63.30
2017-12-09T11:30:34.901Z,64.20
2017-12-09T11:33:02.435Z,63.70
2017-12-09T11:35:29.984Z,63.60
2017-12-09T11:37:57.610Z,62.90
2017-12-09T11:40:25.174Z,62.90
2017-12-09T11:42:52.829Z,62.10
2017-12-09T11:45:21.360Z,63.40
2017-12-09T11:47:49.483Z,64.00
2017-12-09T11:50:17.680Z,62.90
2017-12-09T11:52:45.217Z,61.40
2017-12-09T11:55:16.923Z,62.50
2017-12-09T11:57:45.438Z,61.30
2017-12-09T12:00:13.883Z,63.40
2017-12-09T12:02:42.560Z,63.90
2017-12-09T12:05:10.278Z,63.70
2017-12-09T12:07:37.813Z,63.00
2017-12-09T12:10:05.339Z,65.20
2017-12-09T12:12:32.903Z,64.30
2017-12-09T12:15:01.216Z,64.60
2017-12-09T12:17:28.759Z,64.50
2017-12-09T12:19:56.332Z,66.00
2017-12-09T12:22:23.877Z,66.00
2017-12-09T12:24:51.572Z,66.50
2017-12-09T12:27:19.157Z,66.30
2017-12-09T12:29:46.692Z,66.60
2017-12-09T12:32:15.526Z,66.50
2017-12-09T12:34:43.125Z,66.10
2017-12-09T12:37:10.664Z,65.40
2017-12-09T12:39:38.890Z,66.40
2017-12-09T12:42:06.531Z,66.80
2017-12-09T12:44:34.063Z,64.30
2017-12-09T12:47:01.601Z,63.80
2017-12-09T12:49:29.516Z,62.40
2017-12-09T12:51:57.056Z,63.20
2017-12-09T12:54:24.592Z,64.30
2017-12-09T12:56:52.157Z,61.20
2017-12-09T12:59:20.021Z,60.20
2017-12-09T13:01:49.180Z,61.30
2017-12-09T13:04:16.771Z,60.90
2017-12-09T13:06:44.309Z,61.80
2017-12-09T13:09:12.611Z,62.70
2017-12-09T13:11:40.208Z,62.60
2017-12-09T13:14:07.760Z,62.60
2017-12-09T13:16:35.291Z,63.60
2017-12-09T13:19:02.975Z,63.50
2017-12-09T13:21:30.515Z,64.00
2017-12-09T13:23:58.051Z,64.20
2017-12-09T13:26:25.640Z,64.60
2017-12-09T13:28:53.171Z,65.00
2017-12-09T13:31:20.711Z,63.70
2017-12-09T13:33:48.300Z,65.10
2017-12-09T13:36:16.411Z,65.30
2017-12-09T13:38:43.952Z,63.70
2017-12-09T13:41:11.504Z,63.80
2017-12-09T13:43:39.805Z,62.30
2017-12-09T13:46:07.341Z,62.20
2017-12-09T13:48:34.907Z,62.00
2017-12-09T13:51:02.954Z,62.80
2017-12-09T13:53:30.501Z,63.20
2017-12-09T13:55:58.856Z,61.60
2017-12-09T13:58:26.574Z,61.60
2017-12-09T14:00:54.104Z,61.80
2017-12-09T14:03:21.685Z,61.20
2017-12-09T14:05:49.219Z,63.00
2017-12-09T14:08:17.520Z,63.30
2017-12-09T14:10:45.101Z,63.20
2017-12-09T14:13:13.624Z,63.10
2017-12-09T14:15:41.924Z,64.40
2017-12-09T14:18:09.525Z,64.40
2017-12-09T14:20:37.070Z,64.60
2017-12-09T14:23:04.607Z,64.80
2017-12-09T14:25:32.184Z,64.50
2017-12-09T14:27:59.855Z,64.90
2017-12-09T14:30:27.383Z,65.30
2017-12-09T14:32:54.954Z,65.90
2017-12-09T14:35:22.483Z,65.80
2017-12-09T14:37:50.018Z,65.50
2017-12-09T14:40:17.608Z,65.80
2017-12-09T14:42:45.156Z,65.30
2017-12-09T14:45:14.582Z,65.50
2017-12-09T14:47:42.143Z,65.50
2017-12-09T14:50:09.679Z,64.70
2017-12-09T14:52:37.409Z,63.30
2017-12-09T14:55:04.971Z,64.50
2017-12-09T14:57:32.518Z,64.80
2017-12-09T15:00:00.063Z,65.00
2017-12-09T15:02:27.690Z,64.40
2017-12-09T15:04:55.223Z,64.20
2017-12-09T15:07:22.763Z,64.10
2017-12-09T15:09:50.319Z,64.70
2017-12-09T15:12:17.858Z,64.20
2017-12-09T15:14:45.547Z,63.80
2017-12-09T15:17:15.567Z,64.10
2017-12-09T15:19:43.124Z,64.40
2017-12-09T15:22:10.684Z,65.20
2017-12-09T15:24:39.780Z,65.50
2017-12-09T15:27:07.319Z,65.50
2017-12-09T15:29:34.860Z,65.00
2017-12-09T15:32:02.441Z,65.70
2017-12-09T15:34:29.976Z,65.80
2017-12-09T15:36:57.509Z,66.70
2017-12-09T15:39:25.933Z,66.70
2017-12-09T15:41:53.465Z,67.20
2017-12-09T15:44:21.003Z,67.00
2017-12-09T15:46:49.356Z,67.30
2017-12-09T15:49:17.889Z,67.70
2017-12-09T15:51:45.428Z,67.70
2017-12-09T15:54:15.890Z,67.80
2017-12-09T15:56:43.425Z,68.10
2017-12-09T15:59:10.980Z,68.70
2017-12-09T16:01:39.316Z,69.10
2017-12-09T16:04:06.855Z,69.30
2017-12-09T16:06:34.392Z,69.50
2017-12-09T16:09:02.065Z,69.90
2017-12-09T16:11:29.624Z,70.40
2017-12-09T16:13:57.156Z,70.20
2017-12-09T16:16:24.729Z,69.90
2017-12-09T16:18:52.277Z,70.00
2017-12-09T16:21:19.808Z,70.60
2017-12-09T16:23:48.884Z,70.60
2017-12-09T16:26:17.192Z,71.00
2017-12-09T16:28:44.733Z,71.00
2017-12-09T16:31:12.324Z,71.40
2017-12-09T16:33:40.697Z,71.50
2017-12-09T16:36:08.385Z,72.10
2017-12-09T16:38:35.948Z,71.90
2017-12-09T16:41:03.511Z,71.80
2017-12-09T16:43:31.076Z,71.90
2017-12-09T16:45:59.115Z,72.40
2017-12-09T16:48:26.690Z,72.50
2017-12-09T16:50:54.333Z,72.40
2017-12-09T16:53:22.008Z,72.40
2017-12-09T16:55:49.825Z,72.70
2017-12-09T16:58:17.370Z,72.80
2017-12-09T17:00:46.107Z,73.10
2017-12-09T17:03:14.622Z,73.10
2017-12-09T17:05:42.185Z,73.20
2017-12-09T17:08:09.753Z,73.30
2017-12-09T17:10:38.885Z,72.80
2017-12-09T17:13:06.456Z,72.90
2017-12-09T17:15:34.047Z,73.10
2017-12-09T17:18:01.739Z,73.10
2017-12-09T17:20:30.264Z,73.10
2017-12-09T17:22:58.254Z,73.10
2017-12-09T17:25:25.924Z,73.40
2017-12-09T17:27:53.526Z,72.80
2017-12-09T17:30:21.154Z,72.70
2017-12-09T17:32:49.520Z,72.20
2017-12-09T17:35:17.049Z,72.10
2017-12-09T17:37:44.664Z,72.20
2017-12-09T17:40:14.004Z,71.60
2017-12-09T17:42:41.539Z,71.60
2017-12-09T17:45:09.425Z,72.20
2017-12-09T17:47:36.973Z,72.60
2017-12-09T17:50:04.553Z,72.20
2017-12-09T17:52:32.314Z,71.90
2017-12-09T17:54:59.878Z,72.20
2017-12-09T17:57:27.951Z,72.50
2017-12-09T17:59:55.721Z,72.90
2017-12-09T18:02:23.275Z,72.30
2017-12-09T18:04:50.811Z,72.50
2017-12-09T18:07:18.377Z,72.30
2017-12-09T18:09:45.942Z,72.20
2017-12-09T18:12:13.645Z,72.30
2017-12-09T18:21:11.241Z,72.40
2017-12-09T18:23:38.821Z,72.90
2017-12-09T18:26:06.596Z,72.60
2017-12-09T18:28:34.920Z,72.50
2017-12-09T18:31:02.471Z,72.50
2017-12-09T18:33:30.870Z,72.00
2017-12-09T18:35:58.464Z,71.40
2017-12-09T18:38:26.763Z,71.90
2017-12-09T18:40:54.354Z,71.70
2017-12-09T18:43:22.385Z,72.10
2017-12-09T18:45:49.970Z,72.20
2017-12-09T18:48:17.508Z,72.50
2017-12-09T18:50:45.096Z,72.20
2017-12-09T18:53:13.657Z,71.90
2017-12-09T18:55:42.004Z,72.10
2017-12-09T18:58:10.533Z,72.20
2017-12-09T19:00:38.132Z,72.20
2017-12-09T19:03:05.671Z,72.10
2017-12-09T19:05:33.386Z,72.10
2017-12-09T19:08:01.228Z,71.50
2017-12-09T19:10:28.768Z,71.40
2017-12-09T19:12:56.492Z,71.00
2017-12-09T19:15:24.312Z,70.90
2017-12-09T19:17:51.840Z,71.20
2017-12-09T19:20:19.464Z,71.50
2017-12-09T19:22:47.016Z,71.80
2017-12-09T19:25:17.276Z,71.60
2017-12-09T19:27:46.329Z,71.60
2017-12-09T19:30:16.381Z,71.70
2017-12-09T19:32:43.920Z,71.70
2017-12-09T19:35:11.505Z,72.10
2017-12-09T19:37:39.093Z,72.30
2017-12-09T19:40:06.627Z,72.00
2017-12-09T19:42:34.207Z,71.80
2017-12-09T19:45:02.617Z,71.60
2017-12-09T19:47:30.188Z,71.60
2017-12-09T19:49:57.988Z,71.40
2017-12-09T19:52:25.559Z,71.20
2017-12-09T19:54:53.096Z,70.70
2017-12-09T19:57:20.932Z,70.80
2017-12-09T19:59:48.823Z,71.10
2017-12-09T20:02:16.400Z,70.90
2017-12-09T20:04:44.732Z,71.80
2017-12-09T20:07:12.776Z,70.80
2017-12-09T20:09:40.383Z,71.30
2017-12-09T20:12:07.963Z,71.50
2017-12-09T20:14:35.509Z,71.40
2017-12-09T20:17:03.067Z,71.20
2017-12-09T20:19:30.623Z,71.10
2017-12-09T20:21:58.162Z,71.70
2017-12-09T20:24:25.702Z,71.40
2017-12-09T20:26:54.041Z,71.30
2017-12-09T20:29:21.568Z,71.20
2017-12-09T20:31:49.108Z,70.80
2017-12-09T20:34:16.693Z,70.80
2017-12-09T20:36:44.227Z,71.00
2017-12-09T20:39:11.869Z,71.00
2017-12-09T20:41:40.200Z,70.20
2017-12-09T20:44:07.731Z,70.20
2017-12-09T20:46:35.643Z,70.10
2017-12-09T20:49:03.201Z,70.30
2017-12-09T20:51:30.752Z,69.40
2017-12-09T20:53:58.419Z,69.70
2017-12-09T20:56:26.020Z,69.30
2017-12-09T20:58:54.325Z,69.30
2017-12-09T21:01:22.389Z,69.30
2017-12-09T21:03:49.944Z,69.30
2017-12-09T21:06:17.820Z,69.20
2017-12-09T21:08:45.364Z,69.50
2017-12-09T21:11:15.528Z,69.10
2017-12-09T21:13:43.088Z,68.30
2017-12-09T21:16:10.633Z,68.60
2017-12-09T21:18:38.439Z,68.70
2017-12-09T21:21:06.759Z,68.00
2017-12-09T21:23:34.317Z,68.00
2017-12-09T21:26:03.143Z,68.40
2017-12-09T21:28:30.676Z,68.40
2017-12-09T21:30:58.208Z,68.20
2017-12-09T21:33:25.803Z,68.10
2017-12-09T21:35:53.349Z,67.70
2017-12-09T21:38:20.883Z,67.70
2017-12-09T21:40:48.523Z,68.30
2017-12-09T21:43:17.639Z,68.00
2017-12-09T21:45:45.214Z,67.40
2017-12-09T21:48:13.712Z,67.80
2017-12-09T21:50:41.304Z,68.50
2017-12-09T21:53:08.845Z,68.20
2017-12-09T21:55:36.502Z,68.00
2017-12-09T21:58:04.093Z,68.40
2017-12-09T22:00:31.629Z,66.90
2017-12-09T22:02:59.482Z,67.70
2017-12-09T22:05:27.024Z,67.80
2017-12-09T22:07:54.596Z,68.00
2017-12-09T22:10:23.721Z,68.20
2017-12-09T22:12:51.252Z,68.60
2017-12-09T22:15:18.807Z,68.40
2017-12-09T22:17:46.389Z,68.30
2017-12-09T22:20:15.567Z,67.80
2017-12-09T22:22:43.096Z,68.60
2017-12-09T22:25:10.676Z,69.00
2017-12-09T22:27:38.200Z,68.60
2017-12-09T22:30:05.732Z,68.20
2017-12-09T22:32:34.060Z,68.80
2017-12-09T22:35:01.640Z,68.80
2017-12-09T22:37:29.799Z,68.60
2017-12-09T22:39:57.361Z,68.70
2017-12-09T22:42:24.888Z,68.90
2017-12-09T22:44:52.419Z,68.90
2017-12-09T22:47:20.012Z,68.90
2017-12-09T22:49:47.716Z,69.20
2017-12-09T22:52:16.493Z,69.10
2017-12-09T22:54:44.093Z,69.10
2017-12-09T22:57:12.428Z,69.40
2017-12-09T22:59:40.047Z,69.20
2017-12-09T23:02:07.620Z,69.40
2017-12-09T23:04:35.595Z,69.20
2017-12-09T23:07:03.247Z,69.70
2017-12-09T23:09:30.855Z,69.80
2017-12-09T23:11:59.900Z,69.50
2017-12-09T23:14:27.745Z,69.50
2017-12-09T23:16:56.065Z,69.60
2017-12-09T23:19:23.605Z,69.60
2017-12-09T23:21:51.477Z,69.90
2017-12-09T23:24:19.040Z,69.50
2017-12-09T23:26:46.586Z,69.80
2017-12-09T23:29:16.619Z,69.50
2017-12-09T23:31:44.194Z,69.60
2017-12-09T23:34:11.744Z,69.40
2017-12-09T23:36:39.319Z,69.50
2017-12-09T23:39:07.051Z,69.60
2017-12-09T23:41:34.579Z,68.70
2017-12-09T23:44:02.873Z,68.30
2017-12-09T23:46:30.482Z,68.30
2017-12-09T23:48:58.047Z,67.90
2017-12-09T23:51:26.343Z,68.10
2017-12-09T23:53:54.685Z,68.70
2017-12-09T23:56:22.221Z,68.70
2017-12-09T23:58:49.775Z,69.00
